Vilo Acuna International Airport
MUCL : now visible

Airfield :











YOU CAN JOIN US ON...

 
LOGIN :

Register | Disclaimer

   EN    FR    IT 

 









Legend :    VFR   Marginal VFR   IFR   Intensive IFR   Very Intensive IFR
Visi :
Ceiling :
>= 8 km
>= 3000ft
5 to 8 km
1000 to 3000 ft
1500m to 5 km
500 to 1000 ft
800 to 1500m
200 to 500 ft
< 800m
< 200 ft
Symbols :   Thunderstorms  Fog  Heavy snow  Heavy precipitations  Wind > 20 kt







- Airport Elevation : 10 ft
- IATA code : CYO


MUCL - Vilo Acuna International

CURRENT METAR :
  • 231351Z 04012KT 9000 FEW020 23/17 Q1020

EXPIRED METARs :
  • 231250Z 04012KT 9000 FEW020 22/17 Q1019
  • 231151Z 03012KT 9000 SKC 21/16 Q1019

TAF MUCL
Valid from the 23 at 12:00 until the 25 at 00:00 UTC


231100Z 2312/2424 04012KT 9000 SCT020
MUFH FIR / North America



MET'MAP, your aeronautical weather chart ! - Copyright ORBIFLY December 2007 - Disclaimer

ORBIFLY MET'MAP TEAM :

Programming & Development : Alexandra Zaïnal
Concept & Development : Baudouin d'Aumeries
Co-Development & Prog : Marc-Olivier Méhu
Technical & hardware support : Manuel Goepfert

Contact : metmap@orbifly.com




SOURCES & CREDITS :

   NOAA       Earth
Advisory